Time;durP1;ratioP1;P1;durP2;ratioP2;P2;SDS_P1;SDS_P2;PMS_P1;PMS_P2;Temp;Humidity;BMP_temperature;BMP_pressure;BME280_temperature;BME280_humidity;BME280_pressure;Samples;Min_cycle;Max_cycle;Signal;HPM_P1;HPM_P2
2021/05/02 00:00:22;;;;;;;23.08;12.48;;;7.80;97.00;;;;;;5135954;27;20037;-72
2021/05/02 00:02:48;;;;;;;24.67;11.60;;;7.80;97.10;;;;;;5136376;27;20132;-72
2021/05/02 00:05:16;;;;;;;27.63;11.32;;;7.90;97.10;;;;;;5135549;27;20114;-72
2021/05/02 00:07:42;;;;;;;26.15;10.85;;;7.90;97.10;;;;;;5135690;27;20035;-72
2021/05/02 00:10:10;;;;;;;27.48;11.27;;;7.90;97.00;;;;;;5135842;27;20031;-72
2021/05/02 00:12:37;;;;;;;23.55;10.60;;;7.90;97.10;;;;;;5136282;27;20043;-72
2021/05/02 00:15:06;;;;;;;19.70;10.60;;;7.80;97.10;;;;;;5135271;27;20393;-72
2021/05/02 00:17:36;;;;;;;27.65;11.02;;;7.80;97.10;;;;;;5135805;27;20074;-72
2021/05/02 00:20:04;;;;;;;19.63;9.48;;;7.80;97.20;;;;;;5136297;27;20089;-72
2021/05/02 00:22:31;;;;;;;16.80;9.07;;;7.80;97.10;;;;;;5136242;27;20527;-72
2021/05/02 00:24:57;;;;;;;16.50;9.13;;;7.90;97.20;;;;;;5135247;27;20046;-72
2021/05/02 00:27:26;;;;;;;25.23;9.90;;;7.90;97.40;;;;;;5135856;27;20035;-72
2021/05/02 00:29:52;;;;;;;20.20;8.25;;;7.90;97.20;;;;;;5135843;27;20039;-72
2021/05/02 00:32:18;;;;;;;16.10;8.63;;;7.90;97.20;;;;;;5135537;27;20038;-72
2021/05/02 00:34:44;;;;;;;27.98;9.82;;;7.80;97.10;;;;;;5135461;27;20035;-72
2021/05/02 00:37:10;;;;;;;22.23;9.43;;;7.80;97.00;;;;;;5135899;27;20044;-72
2021/05/02 00:39:35;;;;;;;21.35;10.02;;;7.90;97.30;;;;;;5135331;27;20119;-72
2021/05/02 00:42:06;;;;;;;24.95;10.13;;;7.90;96.80;;;;;;5134286;27;20069;-72
2021/05/02 00:44:37;;;;;;;24.42;9.02;;;7.90;96.90;;;;;;5135475;27;20045;-72
2021/05/02 00:47:14;;;;;;;23.40;9.20;;;7.90;97.00;;;;;;5135345;27;20062;-72
2021/05/02 00:49:43;;;;;;;23.05;9.85;;;7.80;96.90;;;;;;5135798;27;20399;-72
2021/05/02 00:52:33;;;;;;;19.10;9.32;;;7.80;97.00;;;;;;5135187;27;20039;-72
2021/05/02 00:55:06;;;;;;;17.13;9.40;;;7.80;96.90;;;;;;5134560;27;20038;-72
2021/05/02 00:57:53;;;;;;;22.75;9.02;;;7.70;96.90;;;;;;5135031;27;20083;-72
2021/05/02 01:00:20;;;;;;;21.90;9.00;;;7.80;96.80;;;;;;5133865;27;20047;-72
2021/05/02 01:02:49;;;;;;;28.02;10.68;;;7.80;96.90;;;;;;5134879;27;20091;-72
2021/05/02 01:05:15;;;;;;;20.02;10.48;;;7.80;96.90;;;;;;5134492;27;20139;-72
2021/05/02 01:07:42;;;;;;;25.27;9.40;;;7.70;96.90;;;;;;5134999;27;20055;-72
2021/05/02 01:10:14;;;;;;;29.80;9.93;;;7.80;97.00;;;;;;5135447;27;20109;-72
2021/05/02 01:12:45;;;;;;;30.85;10.20;;;7.80;97.00;;;;;;5134835;27;20043;-72
2021/05/02 01:15:14;;;;;;;24.83;9.10;;;7.80;97.10;;;;;;5134431;27;20096;-72
2021/05/02 01:17:42;;;;;;;18.95;9.05;;;7.80;96.80;;;;;;5134919;27;20035;-72
2021/05/02 01:20:10;;;;;;;27.88;10.15;;;7.80;96.80;;;;;;5134825;27;20080;-72
2021/05/02 01:22:38;;;;;;;18.20;8.48;;;7.80;96.90;;;;;;5134704;27;20032;-72
2021/05/02 01:25:04;;;;;;;19.65;8.32;;;7.80;96.90;;;;;;5134627;27;20043;-72
2021/05/02 01:27:32;;;;;;;27.40;9.63;;;7.80;97.10;;;;;;5133105;27;20045;-72
2021/05/02 01:29:59;;;;;;;17.90;8.00;;;7.80;97.00;;;;;;5134378;27;20395;-72
2021/05/02 01:32:26;;;;;;;33.45;9.43;;;7.80;96.80;;;;;;5134352;27;20031;-72
2021/05/02 01:34:53;;;;;;;18.10;8.10;;;7.80;97.20;;;;;;5134254;27;20095;-72
2021/05/02 01:37:19;;;;;;;26.00;8.20;;;7.80;96.80;;;;;;5134894;27;20063;-73
2021/05/02 01:39:45;;;;;;;18.75;8.65;;;7.80;96.60;;;;;;5134152;27;20483;-72
2021/05/02 01:42:11;;;;;;;18.20;7.78;;;7.70;96.50;;;;;;5134302;27;20070;-72
2021/05/02 01:44:36;;;;;;;16.42;7.55;;;7.80;96.40;;;;;;5134517;27;20043;-72
2021/05/02 01:47:10;;;;;;;21.75;8.50;;;7.70;96.30;;;;;;5134127;27;20035;-72
2021/05/02 01:49:42;;;;;;;20.25;7.82;;;7.70;96.40;;;;;;5134931;27;20489;-72
2021/05/02 01:52:08;;;;;;;20.08;7.45;;;7.60;96.40;;;;;;5134236;27;20046;-72
2021/05/02 01:54:35;;;;;;;23.92;8.73;;;7.60;96.50;;;;;;5133734;27;20062;-72
2021/05/02 01:57:01;;;;;;;16.98;7.38;;;7.60;96.50;;;;;;5133162;28;20109;-72
2021/05/02 01:59:27;;;;;;;25.38;8.13;;;7.60;96.40;;;;;;5134531;27;20119;-72
2021/05/02 02:01:53;;;;;;;16.67;7.53;;;7.50;96.40;;;;;;5134381;27;20042;-72
2021/05/02 02:04:24;;;;;;;22.27;8.07;;;7.60;96.40;;;;;;5134045;27;20493;-72
2021/05/02 02:06:52;;;;;;;18.08;7.72;;;7.60;96.50;;;;;;5134445;27;20539;-72
2021/05/02 02:09:18;;;;;;;17.52;7.10;;;7.50;96.30;;;;;;5134043;27;20046;-72
2021/05/02 02:11:44;;;;;;;15.27;7.03;;;7.50;96.30;;;;;;5132785;28;20043;-72
2021/05/02 02:14:10;;;;;;;17.25;6.45;;;7.50;96.30;;;;;;5134403;27;20043;-72
2021/05/02 02:16:40;;;;;;;21.23;7.05;;;7.50;96.20;;;;;;5133973;28;20041;-72
2021/05/02 02:19:06;;;;;;;14.90;6.72;;;7.60;96.00;;;;;;5134987;27;20047;-72
2021/05/02 02:21:32;;;;;;;17.35;6.95;;;7.50;96.00;;;;;;5136606;27;20031;-72
2021/05/02 02:24:01;;;;;;;16.30;7.63;;;7.50;96.20;;;;;;5137975;27;20538;-72
2021/05/02 02:26:42;;;;;;;15.90;6.70;;;7.50;95.80;;;;;;5137802;27;20042;-72
2021/05/02 02:29:12;;;;;;;18.13;7.07;;;7.50;95.90;;;;;;5138482;27;20053;-72
2021/05/02 02:31:39;;;;;;;16.70;6.93;;;7.50;95.90;;;;;;5136758;27;20035;-72
2021/05/02 02:34:05;;;;;;;16.05;7.38;;;7.50;95.90;;;;;;5137682;27;20035;-72
2021/05/02 02:36:32;;;;;;;12.50;6.22;;;7.50;96.00;;;;;;5137353;27;20185;-72
2021/05/02 02:38:59;;;;;;;13.38;6.28;;;7.60;95.90;;;;;;5137959;27;20133;-72
2021/05/02 02:41:27;;;;;;;17.08;6.00;;;7.60;95.70;;;;;;5136876;27;20031;-72
2021/05/02 02:43:57;;;;;;;12.18;5.72;;;7.50;95.70;;;;;;5137650;27;20030;-72
2021/05/02 02:46:27;;;;;;;15.80;5.45;;;7.50;95.60;;;;;;5137756;27;20041;-72
2021/05/02 02:48:58;;;;;;;14.52;5.93;;;7.50;95.70;;;;;;5137475;27;20031;-72
2021/05/02 02:51:28;;;;;;;10.93;5.20;;;7.50;95.50;;;;;;5137364;27;20042;-72
2021/05/02 02:53:58;;;;;;;10.93;5.30;;;7.50;95.20;;;;;;5137265;27;20119;-72
2021/05/02 02:56:27;;;;;;;11.38;4.70;;;7.50;95.50;;;;;;5137306;27;20127;-72
2021/05/02 02:58:57;;;;;;;13.23;5.18;;;7.40;95.40;;;;;;5137215;27;20422;-72
2021/05/02 03:01:24;;;;;;;8.38;4.82;;;7.40;95.40;;;;;;5137257;27;20035;-72
2021/05/02 03:03:57;;;;;;;13.40;5.35;;;7.40;95.50;;;;;;5137407;27;20061;-72
2021/05/02 03:06:25;;;;;;;10.18;4.97;;;7.50;95.20;;;;;;5136715;27;20034;-72
2021/05/02 03:08:54;;;;;;;11.48;5.45;;;7.50;94.80;;;;;;5137163;27;20074;-72
2021/05/02 03:11:22;;;;;;;14.35;5.80;;;7.50;94.90;;;;;;5137839;27;20039;-72
2021/05/02 03:13:48;;;;;;;9.93;4.43;;;7.40;95.00;;;;;;5137251;27;20038;-72
2021/05/02 03:16:19;;;;;;;12.32;4.75;;;7.40;95.00;;;;;;5136677;27;20039;-72
2021/05/02 03:19:13;;;;;;;9.30;5.40;;;7.40;95.10;;;;;;5137475;27;20035;-72
2021/05/02 03:21:41;;;;;;;10.80;5.30;;;7.40;94.80;;;;;;5137149;27;20483;-72
2021/05/02 03:24:08;;;;;;;11.98;5.05;;;7.40;95.00;;;;;;5135679;27;20071;-72
2021/05/02 03:26:34;;;;;;;9.68;4.90;;;7.40;95.00;;;;;;5136301;27;20479;-72
2021/05/02 03:29:03;;;;;;;13.52;5.05;;;7.40;94.90;;;;;;5137099;27;20054;-72
2021/05/02 03:31:34;;;;;;;10.55;4.93;;;7.40;94.80;;;;;;5136529;27;20042;-72
2021/05/02 03:34:09;;;;;;;11.38;4.75;;;7.40;94.80;;;;;;5136283;27;20083;-72
2021/05/02 03:36:38;;;;;;;10.80;5.13;;;7.50;94.70;;;;;;5136325;27;20058;-72
2021/05/02 03:39:05;;;;;;;14.05;4.80;;;7.40;94.80;;;;;;5135588;27;20061;-72
2021/05/02 03:41:34;;;;;;;18.33;4.70;;;7.30;95.00;;;;;;5136870;27;20077;-72
2021/05/02 03:44:00;;;;;;;10.75;4.63;;;7.40;94.80;;;;;;5136366;27;20235;-72
2021/05/02 03:46:26;;;;;;;8.80;4.97;;;7.40;94.80;;;;;;5136319;27;20040;-72
2021/05/02 03:48:57;;;;;;;11.30;3.95;;;7.40;94.90;;;;;;5135119;27;20035;-72
2021/05/02 03:51:23;;;;;;;18.25;4.45;;;7.40;94.70;;;;;;5136260;27;20031;-72
2021/05/02 03:53:49;;;;;;;12.27;3.38;;;7.40;94.60;;;;;;5136834;27;20031;-72
2021/05/02 03:56:37;;;;;;;8.05;3.25;;;7.40;94.60;;;;;;5135599;27;20046;-72
2021/05/02 03:59:10;;;;;;;10.48;3.40;;;7.40;94.30;;;;;;5136170;27;20467;-72
2021/05/02 04:01:41;;;;;;;9.18;3.30;;;7.40;94.20;;;;;;5136153;27;20432;-72
2021/05/02 04:04:09;;;;;;;10.88;3.78;;;7.40;94.40;;;;;;5136241;27;20391;-72
2021/05/02 04:06:35;;;;;;;6.60;3.33;;;7.30;94.10;;;;;;5135619;27;20031;-72
2021/05/02 04:09:05;;;;;;;6.05;3.22;;;7.20;94.20;;;;;;5136455;27;20069;-72
2021/05/02 04:11:31;;;;;;;9.35;3.45;;;7.30;94.30;;;;;;5136450;27;20530;-72
2021/05/02 04:14:00;;;;;;;7.88;3.45;;;7.30;94.40;;;;;;5135870;27;20062;-72
2021/05/02 04:16:26;;;;;;;7.30;3.20;;;7.30;94.50;;;;;;5135199;27;20517;-72
2021/05/02 04:18:52;;;;;;;10.40;3.53;;;7.40;94.30;;;;;;5135688;27;20039;-72
2021/05/02 04:21:18;;;;;;;6.50;3.22;;;7.30;94.10;;;;;;5135574;27;20035;-72
2021/05/02 04:23:43;;;;;;;8.98;3.90;;;7.30;94.30;;;;;;5135677;27;20119;-72
2021/05/02 04:26:09;;;;;;;11.93;3.30;;;7.30;94.30;;;;;;5135223;27;20077;-72
2021/05/02 04:28:35;;;;;;;5.85;3.33;;;7.30;94.20;;;;;;5135445;27;20035;-72
2021/05/02 04:31:00;;;;;;;6.45;3.63;;;7.40;94.10;;;;;;5135422;27;20435;-72
2021/05/02 04:33:26;;;;;;;8.68;3.35;;;7.40;94.20;;;;;;5135460;27;20057;-72
2021/05/02 04:35:52;;;;;;;8.98;4.13;;;7.30;94.00;;;;;;5133775;27;20494;-72
2021/05/02 04:38:17;;;;;;;6.88;2.70;;;7.40;93.80;;;;;;5135868;27;20114;-72
2021/05/02 04:40:43;;;;;;;9.10;3.20;;;7.30;94.10;;;;;;5135351;27;20486;-72
2021/05/02 04:43:10;;;;;;;8.07;3.20;;;7.30;93.80;;;;;;5135020;27;20031;-72
2021/05/02 04:45:36;;;;;;;6.40;2.90;;;7.30;93.90;;;;;;5135035;27;20035;-72
2021/05/02 04:48:03;;;;;;;8.38;2.97;;;7.30;93.80;;;;;;5135405;27;20035;-72
2021/05/02 04:50:30;;;;;;;8.82;3.65;;;7.30;94.00;;;;;;5134977;27;20042;-72
2021/05/02 04:52:56;;;;;;;8.90;3.00;;;7.30;93.80;;;;;;5135623;27;20118;-72
2021/05/02 04:55:21;;;;;;;7.80;2.75;;;7.30;94.20;;;;;;5134775;27;20046;-72
2021/05/02 04:57:47;;;;;;;6.03;3.65;;;7.30;93.60;;;;;;5135458;27;20040;-72
2021/05/02 05:00:13;;;;;;;7.20;2.80;;;7.30;93.70;;;;;;5134848;27;20035;-72
2021/05/02 05:02:39;;;;;;;8.43;3.03;;;7.40;93.60;;;;;;5135201;27;20383;-72
2021/05/02 05:05:05;;;;;;;9.25;2.60;;;7.40;93.40;;;;;;5134445;27;20039;-72
2021/05/02 05:07:31;;;;;;;5.45;2.40;;;7.40;93.40;;;;;;5134783;27;20526;-72
2021/05/02 05:09:57;;;;;;;5.75;1.98;;;7.40;92.90;;;;;;5134904;27;20118;-72
2021/05/02 05:12:22;;;;;;;7.10;2.28;;;7.50;92.60;;;;;;5134896;27;20042;-72
2021/05/02 05:14:48;;;;;;;12.13;2.38;;;7.40;92.80;;;;;;5134196;27;20494;-72
2021/05/02 05:17:14;;;;;;;8.93;2.40;;;7.40;92.90;;;;;;5134889;27;20050;-72
2021/05/02 05:19:40;;;;;;;8.02;2.47;;;7.40;92.80;;;;;;5134669;27;20436;-72
2021/05/02 05:22:06;;;;;;;7.18;2.10;;;7.40;92.80;;;;;;5135275;27;20139;-72
2021/05/02 05:24:31;;;;;;;4.03;2.13;;;7.40;92.00;;;;;;5134907;27;20035;-72
2021/05/02 05:26:57;;;;;;;6.28;2.45;;;7.30;91.90;;;;;;5134359;27;20058;-72
2021/05/02 05:29:23;;;;;;;6.18;2.28;;;7.40;92.10;;;;;;5134334;27;20092;-72
2021/05/02 05:31:48;;;;;;;5.22;1.90;;;7.40;91.90;;;;;;5134781;27;20039;-72
2021/05/02 05:34:14;;;;;;;4.43;2.17;;;7.40;91.90;;;;;;5134811;27;20035;-72
2021/05/02 05:36:39;;;;;;;4.28;2.05;;;7.40;91.90;;;;;;5134522;27;20386;-72
2021/05/02 05:39:05;;;;;;;8.23;2.55;;;7.50;91.40;;;;;;5134451;27;20529;-72
2021/05/02 05:41:31;;;;;;;6.82;2.33;;;7.60;91.40;;;;;;5134444;27;20088;-72
2021/05/02 05:43:57;;;;;;;10.63;3.53;;;7.60;91.60;;;;;;5134211;27;20038;-72
2021/05/02 05:46:22;;;;;;;4.82;1.70;;;7.50;91.60;;;;;;5133815;27;20035;-72
2021/05/02 05:48:48;;;;;;;5.55;2.30;;;7.50;91.60;;;;;;5134772;27;20031;-72
2021/05/02 05:51:14;;;;;;;7.00;2.25;;;7.60;91.20;;;;;;5134061;27;20039;-72
2021/05/02 05:53:40;;;;;;;7.88;2.00;;;7.60;91.20;;;;;;5133560;28;20063;-72
2021/05/02 05:56:05;;;;;;;5.43;2.13;;;7.70;91.40;;;;;;5135809;27;20122;-72
2021/05/02 05:58:32;;;;;;;6.38;2.15;;;7.70;91.40;;;;;;5139029;27;20091;-72
2021/05/02 06:00:58;;;;;;;3.42;2.08;;;7.70;91.20;;;;;;5138396;27;20114;-72
2021/05/02 06:03:24;;;;;;;5.22;2.13;;;7.80;91.00;;;;;;5138145;27;20058;-72
2021/05/02 06:05:50;;;;;;;5.90;2.40;;;7.80;91.20;;;;;;5137913;27;20487;-71
2021/05/02 06:08:16;;;;;;;3.92;1.90;;;8.00;91.00;;;;;;5137999;27;20121;-71
2021/05/02 06:10:42;;;;;;;4.38;2.17;;;8.50;90.80;;;;;;5138107;27;20110;-71
2021/05/02 06:13:07;;;;;;;6.03;2.00;;;8.90;90.00;;;;;;5138664;27;20035;-71
2021/05/02 06:15:33;;;;;;;6.40;2.28;;;9.40;89.00;;;;;;5137568;27;20035;-71
2021/05/02 06:17:59;;;;;;;5.32;1.98;;;9.70;87.50;;;;;;5138498;27;20039;-71
2021/05/02 06:20:25;;;;;;;10.88;3.13;;;9.80;86.30;;;;;;5138563;27;20038;-71
2021/05/02 06:22:52;;;;;;;5.68;1.98;;;9.80;85.60;;;;;;5137906;27;20040;-71
2021/05/02 06:25:18;;;;;;;2.88;1.80;;;9.60;86.40;;;;;;5137674;27;20095;-72
2021/05/02 06:27:44;;;;;;;3.17;1.95;;;9.20;86.00;;;;;;5138251;27;20035;-71
2021/05/02 06:30:10;;;;;;;8.38;3.17;;;9.30;87.20;;;;;;5137894;27;20038;-71
2021/05/02 06:32:37;;;;;;;5.43;1.92;;;9.10;88.00;;;;;;5138386;27;20038;-71
2021/05/02 06:35:05;;;;;;;5.25;2.13;;;8.80;88.30;;;;;;5137853;27;20087;-71
2021/05/02 06:37:31;;;;;;;5.38;2.00;;;8.80;89.30;;;;;;5138367;27;20051;-71
2021/05/02 06:39:57;;;;;;;5.93;2.47;;;8.80;90.00;;;;;;5137741;27;20117;-71
2021/05/02 06:42:23;;;;;;;5.28;2.45;;;9.10;90.00;;;;;;5137565;27;20070;-71
2021/05/02 06:44:52;;;;;;;5.78;2.33;;;9.40;88.30;;;;;;5137461;27;20043;-71
2021/05/02 06:47:18;;;;;;;7.63;1.80;;;9.30;87.80;;;;;;5137734;27;20042;-71
2021/05/02 06:49:44;;;;;;;1.70;1.45;;;9.10;87.50;;;;;;5137412;27;20035;-71
2021/05/02 06:52:09;;;;;;;3.45;1.70;;;9.00;87.70;;;;;;5137574;27;20380;-71
2021/05/02 06:54:35;;;;;;;4.45;1.63;;;8.90;87.30;;;;;;5137261;27;20046;-72
2021/05/02 06:57:01;;;;;;;4.10;1.70;;;9.00;87.30;;;;;;5118754;27;20039;-71
2021/05/02 06:59:26;;;;;;;4.50;1.40;;;8.90;86.60;;;;;;5137658;27;20071;-71
2021/05/02 07:01:52;;;;;;;4.30;1.67;;;8.90;86.00;;;;;;5137507;27;20035;-71
2021/05/02 07:04:18;;;;;;;4.25;1.70;;;8.90;85.50;;;;;;5136980;27;20471;-72
2021/05/02 07:06:43;;;;;;;2.05;1.48;;;8.80;86.80;;;;;;5136091;27;20027;-71
2021/05/02 07:09:09;;;;;;;4.18;1.50;;;8.70;87.20;;;;;;5137095;27;20468;-72
2021/05/02 07:11:36;;;;;;;3.03;1.65;;;8.60;88.30;;;;;;5135767;27;20035;-71
2021/05/02 07:14:02;;;;;;;5.93;1.38;;;8.60;89.50;;;;;;5137369;27;20483;-71
2021/05/02 07:16:29;;;;;;;3.20;1.58;;;8.50;90.00;;;;;;5136942;27;20031;-71
2021/05/02 07:18:55;;;;;;;5.07;1.85;;;8.50;89.40;;;;;;5137611;27;20042;-71
2021/05/02 07:21:21;;;;;;;3.80;1.90;;;8.50;89.20;;;;;;5137508;27;20043;-71
2021/05/02 07:23:52;;;;;;;3.42;1.52;;;8.40;89.90;;;;;;5136267;27;20043;-71
2021/05/02 07:26:22;;;;;;;3.33;1.30;;;8.40;90.20;;;;;;5136315;27;20117;-72
2021/05/02 07:28:49;;;;;;;1.88;1.30;;;8.30;90.20;;;;;;5137092;27;20031;-72
2021/05/02 07:31:15;;;;;;;1.92;1.20;;;8.30;90.10;;;;;;5136896;27;20042;-71
2021/05/02 07:33:42;;;;;;;2.40;1.38;;;8.30;90.00;;;;;;5136510;27;20054;-72
2021/05/02 07:36:08;;;;;;;3.63;1.65;;;8.40;90.20;;;;;;5136258;27;20035;-73
2021/05/02 07:38:35;;;;;;;4.10;1.60;;;8.50;90.00;;;;;;5136815;27;20065;-72
2021/05/02 07:41:01;;;;;;;2.63;1.55;;;8.50;90.00;;;;;;5136684;27;20039;-72
2021/05/02 07:43:27;;;;;;;3.20;1.50;;;9.10;88.80;;;;;;5136894;27;20073;-71
2021/05/02 07:45:53;;;;;;;5.70;1.40;;;9.70;87.80;;;;;;5134873;27;20086;-72
2021/05/02 07:48:19;;;;;;;2.45;1.50;;;10.10;86.50;;;;;;5135707;27;20047;-72
2021/05/02 07:50:44;;;;;;;2.80;1.67;;;10.30;84.40;;;;;;5136211;27;20035;-73
2021/05/02 07:53:10;;;;;;;5.47;1.65;;;10.20;84.30;;;;;;5136280;27;20062;-72
2021/05/02 07:55:36;;;;;;;2.90;1.30;;;10.40;85.20;;;;;;5136036;27;20068;-72
2021/05/02 07:58:02;;;;;;;2.85;1.55;;;10.10;84.80;;;;;;5135870;27;20054;-72
2021/05/02 08:00:28;;;;;;;3.95;1.40;;;9.80;83.70;;;;;;5135012;27;20034;-72
2021/05/02 08:02:54;;;;;;;3.05;1.50;;;9.50;84.10;;;;;;5134649;27;20039;-71
2021/05/02 08:05:20;;;;;;;3.00;1.35;;;9.30;85.00;;;;;;5136152;27;20043;-72
2021/05/02 08:07:46;;;;;;;4.88;2.13;;;9.10;85.70;;;;;;5135898;27;20475;-72
2021/05/02 08:10:12;;;;;;;4.07;1.60;;;9.00;84.90;;;;;;5135735;27;20041;-72
2021/05/02 08:12:38;;;;;;;5.30;1.90;;;9.00;84.50;;;;;;5135757;27;20424;-72
2021/05/02 08:15:06;;;;;;;6.43;1.40;;;9.20;84.50;;;;;;5135732;27;20035;-72
2021/05/02 08:17:32;;;;;;;6.03;1.67;;;9.90;83.10;;;;;;5135566;27;20104;-73
2021/05/02 08:19:58;;;;;;;3.78;1.40;;;10.50;80.80;;;;;;5135405;27;20039;-73
2021/05/02 08:22:24;;;;;;;6.47;1.60;;;10.90;79.80;;;;;;5136188;27;20042;-72
2021/05/02 08:24:50;;;;;;;3.67;2.00;;;11.10;79.60;;;;;;5135538;27;20072;-73
2021/05/02 08:27:16;;;;;;;3.60;1.73;;;11.30;80.10;;;;;;5135720;27;20046;-73
2021/05/02 08:29:41;;;;;;;4.50;1.65;;;11.00;77.60;;;;;;5136142;27;20035;-73
2021/05/02 08:32:07;;;;;;;5.55;2.05;;;10.60;79.10;;;;;;5135683;27;20074;-74
2021/05/02 08:34:33;;;;;;;6.93;1.60;;;10.20;78.70;;;;;;5135170;27;20039;-74
2021/05/02 08:36:59;;;;;;;5.25;1.63;;;10.00;77.80;;;;;;5135901;27;20031;-73
2021/05/02 08:39:27;;;;;;;2.67;1.30;;;9.80;79.20;;;;;;5135424;27;20085;-74
2021/05/02 08:41:52;;;;;;;4.05;1.33;;;9.70;79.80;;;;;;5135643;27;20070;-73
2021/05/02 08:44:23;;;;;;;4.93;1.48;;;9.50;81.80;;;;;;5135031;27;20066;-74
2021/05/02 08:46:50;;;;;;;3.00;1.50;;;9.40;83.60;;;;;;5135589;27;20035;-73
2021/05/02 08:49:15;;;;;;;2.50;1.52;;;9.30;84.30;;;;;;5135333;27;20110;-73
2021/05/02 08:51:41;;;;;;;5.80;1.38;;;9.40;85.10;;;;;;5135122;27;20123;-74
2021/05/02 08:54:07;;;;;;;3.45;1.48;;;9.20;87.10;;;;;;5134991;27;20080;-74
2021/05/02 08:56:32;;;;;;;3.47;1.90;;;9.00;88.90;;;;;;5133886;27;20042;-73
2021/05/02 08:58:58;;;;;;;4.13;1.80;;;8.70;87.20;;;;;;5135713;27;20038;-73
2021/05/02 09:01:29;;;;;;;3.25;1.55;;;8.70;89.00;;;;;;5134915;27;20035;-73
2021/05/02 09:03:55;;;;;;;3.45;2.00;;;8.70;89.80;;;;;;5134994;27;20498;-73
2021/05/02 09:06:27;;;;;;;5.28;1.70;;;8.70;89.70;;;;;;5134549;27;20117;-73
2021/05/02 09:08:57;;;;;;;6.32;1.90;;;8.70;89.30;;;;;;5135384;27;20041;-73
2021/05/02 09:11:40;;;;;;;5.65;2.00;;;8.70;90.00;;;;;;5134073;27;20035;-74
2021/05/02 09:14:16;;;;;;;4.88;1.70;;;8.90;89.60;;;;;;5134713;27;20027;-74
2021/05/02 09:16:54;;;;;;;11.48;3.35;;;8.90;89.30;;;;;;5134527;27;20043;-73
2021/05/02 09:19:31;;;;;;;14.18;2.70;;;9.00;88.80;;;;;;5135179;27;20357;-74
2021/05/02 09:22:11;;;;;;;2.67;1.80;;;9.10;88.60;;;;;;5135290;27;20043;-76
2021/05/02 09:24:37;;;;;;;7.57;2.25;;;9.20;87.10;;;;;;5134825;27;20092;-73
2021/05/02 09:27:14;;;;;;;4.45;1.73;;;9.40;87.50;;;;;;5134868;27;20034;-73
2021/05/02 09:29:42;;;;;;;4.05;1.98;;;9.40;85.00;;;;;;5133304;27;20043;-73
2021/05/02 09:32:10;;;;;;;6.30;1.80;;;9.70;84.40;;;;;;5135096;27;20064;-73
2021/05/02 09:34:36;;;;;;;5.13;1.75;;;10.00;83.50;;;;;;5133195;27;20475;-73
2021/05/02 09:37:06;;;;;;;4.50;1.60;;;10.20;82.20;;;;;;5134471;27;20039;-73
2021/05/02 09:39:51;;;;;;;4.53;1.65;;;10.20;80.50;;;;;;5133947;27;20538;-73
2021/05/02 09:42:39;;;;;;;4.60;1.50;;;10.00;80.10;;;;;;5134908;27;20110;-73
2021/05/02 09:45:11;;;;;;;3.05;1.65;;;9.60;82.90;;;;;;5134190;27;20540;-74
2021/05/02 09:47:38;;;;;;;2.22;1.40;;;9.30;84.80;;;;;;5134967;27;20035;-73
2021/05/02 09:50:22;;;;;;;4.55;2.00;;;8.80;87.80;;;;;;5134509;27;20091;-73
2021/05/02 09:52:55;;;;;;;7.72;2.20;;;8.60;89.20;;;;;;5134641;27;20039;-73
2021/05/02 09:55:40;;;;;;;5.80;2.00;;;8.40;90.90;;;;;;5133217;27;20043;-74
2021/05/02 09:58:08;;;;;;;5.10;2.10;;;8.40;91.40;;;;;;5133813;27;20119;-73
2021/05/02 10:00:38;;;;;;;6.10;2.08;;;8.30;91.80;;;;;;5134320;27;20084;-73
2021/05/02 10:03:13;;;;;;;4.88;2.00;;;8.50;92.10;;;;;;5134370;27;20043;-73
2021/05/02 10:05:56;;;;;;;2.75;1.50;;;8.60;92.00;;;;;;5133969;27;20479;-73
2021/05/02 10:08:25;;;;;;;4.93;2.20;;;8.40;90.40;;;;;;5133082;28;20481;-72
2021/05/02 10:10:51;;;;;;;4.85;2.00;;;8.20;91.20;;;;;;5134584;27;20035;-72
2021/05/02 10:13:19;;;;;;;5.85;2.38;;;8.10;92.60;;;;;;5133817;27;20031;-72
2021/05/02 10:15:45;;;;;;;6.80;2.20;;;7.90;92.30;;;;;;5133487;27;20041;-72
2021/05/02 10:18:11;;;;;;;6.10;2.58;;;7.80;92.50;;;;;;5133871;27;20040;-73
2021/05/02 10:20:36;;;;;;;4.60;2.13;;;7.90;92.70;;;;;;5134478;27;20042;-72
2021/05/02 10:23:07;;;;;;;6.15;2.40;;;8.00;92.50;;;;;;5134268;27;20378;-72
2021/05/02 10:25:35;;;;;;;5.65;2.33;;;8.30;92.60;;;;;;5134145;27;20046;-73
2021/05/02 10:28:01;;;;;;;6.95;2.88;;;8.60;92.40;;;;;;5134306;27;20066;-73
2021/05/02 10:30:33;;;;;;;2.13;1.63;;;9.10;91.70;;;;;;5133921;27;20482;-73
2021/05/02 10:33:10;;;;;;;3.72;2.05;;;9.30;89.60;;;;;;5134330;27;20066;-73
2021/05/02 10:35:52;;;;;;;6.10;2.40;;;9.40;89.70;;;;;;5133589;27;20114;-72
2021/05/02 10:38:43;;;;;;;4.60;1.73;;;9.50;88.20;;;;;;5132972;28;20031;-72
2021/05/02 10:41:24;;;;;;;1.73;1.27;;;9.20;84.80;;;;;;5134693;27;20096;-73
2021/05/02 10:43:51;;;;;;;4.70;1.65;;;9.20;84.40;;;;;;5137699;27;20035;-73
2021/05/02 10:46:42;;;;;;;2.35;1.65;;;9.20;84.50;;;;;;5137649;27;20039;-73
2021/05/02 10:49:20;;;;;;;3.00;1.40;;;9.10;83.80;;;;;;5138316;27;20058;-73
2021/05/02 10:51:50;;;;;;;2.80;1.08;;;9.10;81.20;;;;;;5137797;27;20118;-73
2021/05/02 10:54:18;;;;;;;3.70;1.83;;;8.90;80.80;;;;;;5138058;27;20109;-74
2021/05/02 10:56:55;;;;;;;3.67;1.58;;;9.10;82.50;;;;;;5137335;27;20134;-73
2021/05/02 10:59:46;;;;;;;1.23;0.98;;;9.20;82.10;;;;;;5137616;27;20039;-73
2021/05/02 11:02:47;;;;;;;4.00;1.50;;;9.40;80.50;;;;;;5137286;27;20035;-74
2021/05/02 11:05:19;;;;;;;3.20;1.05;;;9.50;80.20;;;;;;5137273;27;20039;-73
2021/05/02 11:07:47;;;;;;;4.78;1.40;;;9.40;79.60;;;;;;5136257;27;20039;-74
2021/05/02 11:10:17;;;;;;;4.05;1.48;;;9.50;79.90;;;;;;5136986;27;20054;-74
2021/05/02 11:12:46;;;;;;;4.65;1.83;;;9.40;80.80;;;;;;5135964;27;20095;-74
2021/05/02 11:15:27;;;;;;;2.95;1.63;;;9.40;80.90;;;;;;5136872;27;20375;-74
2021/05/02 11:17:54;;;;;;;6.47;1.73;;;9.30;81.90;;;;;;5137425;27;20165;-73
2021/05/02 11:20:49;;;;;;;4.70;2.05;;;9.60;80.70;;;;;;5137672;27;20035;-73
2021/05/02 11:23:20;;;;;;;5.32;2.15;;;9.60;81.00;;;;;;5135915;27;20043;-74
2021/05/02 11:25:58;;;;;;;2.05;1.25;;;9.50;82.40;;;;;;5136975;27;20089;-73
2021/05/02 11:28:36;;;;;;;5.78;1.60;;;9.60;81.70;;;;;;5137029;27;20478;-74
2021/05/02 11:31:02;;;;;;;4.13;1.52;;;9.70;81.30;;;;;;5136628;27;20071;-75
2021/05/02 11:33:28;;;;;;;3.45;1.10;;;9.90;83.00;;;;;;5136763;27;20062;-72
2021/05/02 11:35:54;;;;;;;1.73;0.90;;;9.90;80.20;;;;;;5136369;27;20070;-74
2021/05/02 11:38:22;;;;;;;4.82;1.20;;;9.70;79.90;;;;;;5136549;27;20067;-73
2021/05/02 11:40:57;;;;;;;7.07;1.42;;;9.80;81.00;;;;;;5136594;27;20059;-73
2021/05/02 11:43:30;;;;;;;3.95;1.17;;;9.50;80.00;;;;;;5136004;27;20045;-73
2021/05/02 11:45:58;;;;;;;2.13;1.20;;;9.50;81.10;;;;;;5135108;27;20118;-73
2021/05/02 11:48:31;;;;;;;4.13;1.20;;;9.50;79.60;;;;;;5136864;27;20494;-73
2021/05/02 11:51:08;;;;;;;2.92;1.30;;;9.50;80.00;;;;;;5136525;27;20035;-73
2021/05/02 11:53:49;;;;;;;5.35;1.60;;;9.50;79.30;;;;;;5135420;27;20042;-74
2021/05/02 11:56:27;;;;;;;7.80;1.80;;;9.50;80.50;;;;;;5134715;27;20035;-74
2021/05/02 11:59:01;;;;;;;4.13;1.70;;;9.50;81.90;;;;;;5136741;27;20114;-74
2021/05/02 12:01:30;;;;;;;3.55;1.40;;;9.30;81.50;;;;;;5136406;27;20042;-74
2021/05/02 12:04:07;;;;;;;6.20;1.80;;;9.40;82.80;;;;;;5136214;27;20035;-74
2021/05/02 12:06:35;;;;;;;4.57;1.90;;;9.30;82.20;;;;;;5135513;27;20043;-74
2021/05/02 12:09:12;;;;;;;4.30;1.77;;;9.00;81.70;;;;;;5135844;27;20039;-74
2021/05/02 12:11:39;;;;;;;2.67;1.48;;;9.10;82.00;;;;;;5136231;27;20035;-74
2021/05/02 12:14:05;;;;;;;4.22;1.80;;;9.20;81.50;;;;;;5136298;27;20368;-74
2021/05/02 12:16:31;;;;;;;4.00;1.48;;;9.00;79.80;;;;;;5135482;27;20116;-74
2021/05/02 12:19:05;;;;;;;5.00;1.38;;;9.00;80.50;;;;;;5135744;27;20039;-74
2021/05/02 12:21:40;;;;;;;4.63;1.40;;;9.00;80.40;;;;;;5135852;27;20379;-74
2021/05/02 12:24:40;;;;;;;6.65;1.70;;;9.00;81.20;;;;;;5135775;27;20118;-74
2021/05/02 12:27:07;;;;;;;3.88;2.15;;;9.10;80.70;;;;;;5126736;27;20161;-74
2021/05/02 12:29:43;;;;;;;3.58;1.50;;;9.10;81.00;;;;;;5136276;27;20035;-74
2021/05/02 12:32:11;;;;;;;2.92;1.23;;;9.30;79.30;;;;;;5135675;27;20031;-74
2021/05/02 12:34:41;;;;;;;3.70;1.40;;;9.40;79.60;;;;;;5135174;27;20084;-72
2021/05/02 12:37:15;;;;;;;2.60;1.33;;;9.20;78.40;;;;;;5135511;27;20063;-73
2021/05/02 12:39:43;;;;;;;5.78;1.92;;;9.40;79.00;;;;;;5132728;27;20043;-73
2021/05/02 12:42:10;;;;;;;4.03;1.40;;;9.40;79.70;;;;;;5115360;28;20036;-73
2021/05/02 12:44:38;;;;;;;6.18;2.70;;;9.20;78.90;;;;;;5132725;27;20031;-74
2021/05/02 12:47:16;;;;;;;4.72;1.73;;;9.00;78.70;;;;;;5135884;27;20035;-73
2021/05/02 12:49:50;;;;;;;13.32;2.00;;;9.10;81.20;;;;;;5135422;27;20076;-74
2021/05/02 12:52:16;;;;;;;5.53;1.75;;;9.20;81.00;;;;;;5135788;27;20491;-73
2021/05/02 12:54:42;;;;;;;5.40;1.80;;;9.10;80.50;;;;;;5133395;27;20074;-74
2021/05/02 12:57:13;;;;;;;3.33;1.63;;;9.10;80.60;;;;;;5135384;27;20516;-74
2021/05/02 13:02:33;;;;;;;2.35;1.73;;;8.80;83.10;;;;;;5135344;27;20031;-74
2021/05/02 13:05:00;;;;;;;4.20;1.60;;;8.60;83.60;;;;;;5134221;27;20447;-74